createdAt,value
2019-04-27T00:03:30.056Z,100006.78
2019-04-27T00:08:38.989Z,100013.13
2019-04-27T00:13:41.682Z,100017.75
2019-04-27T00:18:59.583Z,100008.78
2019-04-27T00:24:03.519Z,100008.00
2019-04-27T00:29:07.117Z,100010.61
2019-04-27T00:34:10.655Z,100003.66
2019-04-27T00:39:33.878Z,99997.30
2019-04-27T00:44:37.337Z,99988.95
2019-04-27T00:49:40.791Z,99987.38
2019-04-27T00:54:44.309Z,99967.28
2019-04-27T00:59:49.358Z,99974.25
2019-04-27T01:04:52.997Z,99976.42
2019-04-27T01:09:56.434Z,99968.67
2019-04-27T01:14:59.907Z,99966.50
2019-04-27T01:20:03.622Z,99981.47
2019-04-27T01:25:08.809Z,99985.65
2019-04-27T01:30:30.347Z,99986.60
2019-04-27T01:35:33.871Z,99985.21
2019-04-27T01:40:38.572Z,99989.05
2019-04-27T01:45:42.157Z,99986.26
2019-04-27T01:50:45.617Z,99979.94
2019-04-27T01:55:49.286Z,99984.11
2019-04-27T02:00:54.511Z,99987.83
2019-04-27T02:05:59.365Z,99985.34
2019-04-27T02:11:02.935Z,99976.38
2019-04-27T02:16:06.386Z,99971.41
2019-04-27T02:21:09.911Z,99976.38
2019-04-27T02:26:13.374Z,99978.98
2019-04-27T02:31:34.886Z,99985.16
2019-04-27T02:36:39.136Z,99971.85
2019-04-27T02:41:42.736Z,99977.86
2019-04-27T02:46:46.200Z,99988.38
2019-04-27T02:51:51.294Z,99986.21
2019-04-27T02:56:54.772Z,99985.42
2019-04-27T03:02:05.594Z,99988.22
2019-04-27T03:07:11.318Z,99976.30
2019-04-27T03:12:15.947Z,99970.73
2019-04-27T03:17:22.733Z,99974.12
2019-04-27T03:22:31.034Z,99976.13
2019-04-27T03:27:36.265Z,99974.73
2019-04-27T03:32:43.146Z,99964.81
2019-04-27T03:37:45.316Z,99968.55
2019-04-27T03:42:50.436Z,99973.95
2019-04-27T03:47:54.237Z,99979.38
2019-04-27T03:53:02.285Z,99975.03
2019-04-27T03:58:21.671Z,99976.59
2019-04-27T04:03:25.107Z,99984.77
2019-04-27T04:08:30.771Z,99991.13
2019-04-27T04:13:41.076Z,100002.25
2019-04-27T04:19:00.427Z,99999.91
2019-04-27T04:24:03.248Z,100000.69
2019-04-27T04:29:06.735Z,100007.65
2019-04-27T04:34:12.114Z,99998.69
2019-04-27T04:39:15.415Z,100000.08
2019-04-27T04:44:36.745Z,100002.08
2019-04-27T04:49:40.245Z,100004.25
2019-04-27T04:54:43.698Z,99994.34
2019-04-27T04:59:49.392Z,100006.26
2019-04-27T05:04:52.388Z,100005.48
2019-04-27T05:09:55.868Z,100008.87
2019-04-27T05:14:59.352Z,100006.09
2019-04-27T05:20:04.563Z,100006.09
2019-04-27T05:25:09.298Z,100004.70
2019-04-27T05:30:13.351Z,100003.13
2019-04-27T05:35:16.811Z,100000.95
2019-04-27T05:40:20.290Z,99989.21
2019-04-27T05:46:10.858Z,99997.39
2019-04-27T05:51:12.813Z,99988.42
2019-04-27T05:56:16.282Z,99994.60
2019-04-27T06:01:19.760Z,99990.26
2019-04-27T06:06:23.230Z,99995.99
2019-04-27T06:11:28.436Z,99991.65
2019-04-27T06:16:31.902Z,99993.21
2019-04-27T06:21:35.371Z,99984.69
2019-04-27T06:26:39.919Z,99987.81
2019-04-27T06:31:43.612Z,99993.82
2019-04-27T06:36:48.641Z,99988.86
2019-04-27T06:41:52.237Z,99987.64
2019-04-27T06:46:55.731Z,99981.30
2019-04-27T06:51:59.233Z,99973.73
2019-04-27T06:57:02.679Z,99979.91
2019-04-27T07:02:06.136Z,99980.55
2019-04-27T07:07:09.841Z,99982.92
2019-04-27T07:12:13.357Z,99981.98
2019-04-27T07:17:16.814Z,99982.52
2019-04-27T07:22:20.280Z,99979.90
2019-04-27T07:27:23.726Z,99980.13
2019-04-27T07:32:29.129Z,99977.70
2019-04-27T07:37:32.363Z,99976.80
2019-04-27T07:42:35.822Z,99983.84
2019-04-27T07:47:40.922Z,99975.82
2019-04-27T07:52:44.375Z,99975.99
2019-04-27T07:57:49.422Z,99967.65
2019-04-27T08:02:53.071Z,99970.26
2019-04-27T08:07:56.522Z,99967.65
2019-04-27T08:12:59.982Z,99973.39
2019-04-27T08:18:03.447Z,99965.39
2019-04-27T08:23:06.905Z,99967.33
2019-04-27T08:28:18.750Z,99961.77
2019-04-27T08:33:22.287Z,99963.30
2019-04-27T08:38:25.745Z,99958.44
2019-04-27T08:43:29.204Z,99953.05
2019-04-27T08:48:36.722Z,99956.14
2019-04-27T08:53:39.629Z,99956.31
2019-04-27T08:58:43.041Z,99965.63
2019-04-27T09:03:46.496Z,99959.09
2019-04-27T09:08:51.609Z,99956.48
2019-04-27T09:13:56.687Z,99965.97
2019-04-27T09:19:01.799Z,99954.23
2019-04-27T09:24:05.250Z,99953.94
2019-04-27T09:29:08.742Z,99949.53
2019-04-27T09:34:12.779Z,99942.58
2019-04-27T09:39:16.709Z,99941.53
2019-04-27T09:44:20.160Z,99937.70
2019-04-27T09:49:23.622Z,99936.14
2019-04-27T09:54:27.239Z,99937.70
2019-04-27T09:59:30.808Z,99926.72
2019-04-27T10:04:35.599Z,99920.27
2019-04-27T10:09:39.202Z,99918.70
2019-04-27T10:14:42.662Z,99918.70
2019-04-27T10:19:46.245Z,99913.31
2019-04-27T10:24:49.679Z,99911.92
2019-04-27T10:29:53.149Z,99916.93
2019-04-27T10:34:56.616Z,99914.48
2019-04-27T10:40:00.082Z,99913.88
2019-04-27T10:45:04.249Z,99909.27
2019-04-27T10:50:07.978Z,99907.58
2019-04-27T10:55:11.677Z,99909.37
2019-04-27T11:00:17.213Z,99900.63
2019-04-27T11:05:31.256Z,99899.29
2019-04-27T11:10:33.726Z,99893.19
2019-04-27T11:15:37.352Z,99892.66
2019-04-27T11:20:40.814Z,99883.88
2019-04-27T11:25:44.271Z,99873.53
2019-04-27T11:30:47.731Z,99869.36
2019-04-27T11:35:52.830Z,99872.31
2019-04-27T11:40:56.767Z,99871.06
2019-04-27T11:46:00.322Z,99867.67
2019-04-27T11:51:03.785Z,99850.36
2019-04-27T11:56:07.249Z,99846.36
2019-04-27T12:01:10.697Z,99842.97
2019-04-27T12:06:15.792Z,99825.72
2019-04-27T12:11:19.290Z,99836.35
2019-04-27T12:16:22.758Z,99825.05
2019-04-27T12:21:26.217Z,99826.44
2019-04-27T12:26:31.318Z,99817.66
2019-04-27T12:31:39.342Z,99817.97
2019-04-27T12:36:42.967Z,99807.30
2019-04-27T12:41:46.497Z,99811.79
2019-04-27T12:46:49.955Z,99814.53
2019-04-27T12:51:53.426Z,99833.73
2019-04-27T12:57:05.866Z,99834.96
2019-04-27T13:02:09.784Z,99845.58
2019-04-27T13:07:13.253Z,99840.31
2019-04-27T13:12:16.711Z,99844.14
2019-04-27T13:17:20.173Z,99843.80
2019-04-27T13:22:23.636Z,99836.62
2019-04-27T13:27:27.097Z,99822.14
2019-04-27T13:32:30.549Z,99827.88
2019-04-27T13:37:41.397Z,99822.04
2019-04-27T13:42:47.892Z,99826.38
2019-04-27T13:48:11.046Z,99813.08
2019-04-27T13:53:16.645Z,99800.11
2019-04-27T13:58:19.694Z,99768.89
2019-04-27T14:03:25.118Z,99761.94
2019-04-27T14:08:29.109Z,99753.11
2019-04-27T14:13:32.675Z,99756.23
2019-04-27T14:18:36.133Z,99755.18
2019-04-27T14:23:39.592Z,99750.09
2019-04-27T14:28:43.052Z,99746.86
2019-04-27T14:33:48.254Z,99747.20
2019-04-27T14:38:51.690Z,99736.84
2019-04-27T14:44:07.429Z,99721.64
2019-04-27T14:49:00.342Z,99721.64
2019-04-27T14:54:03.873Z,99727.71
2019-04-27T14:59:07.609Z,99711.48
2019-04-27T15:04:11.061Z,99705.20
2019-04-27T15:09:18.053Z,99705.37
2019-04-27T15:14:20.735Z,99701.52
2019-04-27T15:19:29.189Z,99691.92
2019-04-27T15:24:32.645Z,99694.25
2019-04-27T15:29:36.252Z,99691.81
2019-04-27T15:34:53.341Z,99683.01
2019-04-27T15:40:08.985Z,99685.95
2019-04-27T15:45:12.025Z,99683.79
2019-04-27T15:50:15.322Z,99684.70
2019-04-27T15:55:32.279Z,99728.03
2019-04-27T16:00:28.136Z,99731.73
2019-04-27T16:05:33.344Z,99744.27
2019-04-27T16:10:39.137Z,99740.25
2019-04-27T16:15:41.724Z,99745.77
2019-04-27T16:20:45.516Z,99746.72
2019-04-27T16:25:51.380Z,99739.86
2019-04-27T16:30:54.199Z,99743.39
2019-04-27T16:36:06.206Z,99751.09
2019-04-27T16:41:03.428Z,99770.11
2019-04-27T16:46:08.774Z,99810.78
2019-04-27T16:51:12.398Z,99807.22
2019-04-27T16:56:18.330Z,99809.83
2019-04-27T17:01:30.446Z,99816.45
2019-04-27T17:06:34.190Z,99828.37
2019-04-27T17:11:38.776Z,99802.20
2019-04-27T17:16:52.753Z,99806.38
2019-04-27T17:21:56.207Z,99804.50
2019-04-27T17:26:59.664Z,99809.73
2019-04-27T17:32:03.466Z,99820.52
2019-04-27T17:37:08.275Z,99827.16
2019-04-27T17:42:11.838Z,99826.05
2019-04-27T17:47:15.298Z,99819.36
2019-04-27T17:52:18.755Z,99820.75
2019-04-27T17:57:26.181Z,99814.19
2019-04-27T18:02:29.333Z,99811.84
2019-04-27T18:07:34.908Z,99812.58
2019-04-27T18:12:38.103Z,99808.04
2019-04-27T18:17:48.323Z,99815.20
2019-04-27T18:23:02.255Z,99825.72
2019-04-27T18:28:14.689Z,99843.84
2019-04-27T18:33:12.880Z,99847.41
2019-04-27T18:38:16.338Z,99850.09
2019-04-27T18:43:19.797Z,99861.09
2019-04-27T18:48:24.898Z,99859.27
2019-04-27T18:53:29.994Z,99861.00
2019-04-27T18:58:33.454Z,99860.09
2019-04-27T19:03:36.908Z,99863.22
2019-04-27T19:08:40.369Z,99864.95
2019-04-27T19:13:43.831Z,99871.64
2019-04-27T19:18:48.053Z,99871.95
2019-04-27T19:23:51.697Z,99863.95
2019-04-27T19:28:58.376Z,99862.72
2019-04-27T19:34:01.932Z,99866.63
2019-04-27T19:39:08.765Z,99871.11
2019-04-27T19:44:12.264Z,99874.68
2019-04-27T19:49:15.719Z,99877.30
2019-04-27T19:54:19.184Z,99881.20
2019-04-27T19:59:42.627Z,99875.46
2019-04-27T20:04:47.727Z,99869.11
2019-04-27T20:09:58.894Z,99871.72
2019-04-27T20:15:02.553Z,99888.77
2019-04-27T20:20:06.486Z,99905.47
2019-04-27T20:25:11.197Z,99908.87
2019-04-27T20:30:15.299Z,99910.27
2019-04-27T20:35:18.762Z,99909.92
2019-04-27T20:40:22.215Z,99910.70
2019-04-27T20:45:25.672Z,99909.30
2019-04-27T20:50:30.866Z,99913.17
2019-04-27T20:55:34.320Z,99909.00
2019-04-27T21:00:37.785Z,99909.61
2019-04-27T21:05:58.730Z,99931.27
2019-04-27T21:11:02.204Z,99940.05
2019-04-27T21:16:05.677Z,99951.80
2019-04-27T21:21:09.136Z,99961.55
2019-04-27T21:26:12.609Z,99967.72
2019-04-27T21:31:16.081Z,99968.16
2019-04-27T21:36:19.525Z,99970.94
2019-04-27T21:41:23.056Z,99971.55
2019-04-27T21:46:26.527Z,99975.73
2019-04-27T21:51:31.051Z,99973.38
2019-04-27T21:56:34.508Z,99983.13
2019-04-27T22:01:38.234Z,99987.30
2019-04-27T22:06:41.867Z,99992.72
2019-04-27T22:11:45.325Z,99994.90
2019-04-27T22:16:48.779Z,99997.69
2019-04-27T22:21:52.240Z,99992.55
2019-04-27T22:26:55.699Z,99995.34
2019-04-27T22:31:59.158Z,99996.73
2019-04-27T22:37:02.839Z,99996.55
2019-04-27T22:42:17.005Z,100001.77
2019-04-27T22:47:21.556Z,100010.47
2019-04-27T22:52:25.179Z,100011.86
2019-04-27T22:57:31.425Z,100011.69
2019-04-27T23:02:42.657Z,100025.00
2019-04-27T23:07:46.121Z,100026.22
2019-04-27T23:12:50.997Z,100031.17
2019-04-27T23:17:57.728Z,100035.52
2019-04-27T23:23:02.779Z,100044.92
2019-04-27T23:28:06.423Z,100049.88
2019-04-27T23:33:11.147Z,100051.27
2019-04-27T23:38:17.868Z,100051.09
2019-04-27T23:43:19.931Z,100048.92
2019-04-27T23:48:24.986Z,100043.52
2019-04-27T23:53:31.735Z,100036.39
2019-04-27T23:58:35.322Z,100037.96
